Time;durP1;ratioP1;P1;durP2;ratioP2;P2;SDS_P1;SDS_P2;PMS_P1;PMS_P2;Temp;Humidity;BMP_temperature;BMP_pressure;BME280_temperature;BME280_humidity;BME280_pressure;Samples;Min_cycle;Max_cycle;Signal;HPM_P1;HPM_P2
2023/12/10 00:01:29;;;;;;;2.75;0.90;;;9.40;99.90;;;;;;5005702;28;20033;-59
2023/12/10 00:03:55;;;;;;;4.78;1.40;;;9.40;99.90;;;;;;5004505;28;20083;-59
2023/12/10 00:06:20;;;;;;;3.33;1.35;;;9.40;99.90;;;;;;5004250;28;20033;-59
2023/12/10 00:08:46;;;;;;;3.67;1.65;;;9.40;99.90;;;;;;5004562;28;20034;-60
2023/12/10 00:11:12;;;;;;;4.80;1.13;;;9.40;99.90;;;;;;5004120;28;20022;-59
2023/12/10 00:13:38;;;;;;;4.57;1.17;;;9.40;99.90;;;;;;5004144;28;20465;-59
2023/12/10 00:16:03;;;;;;;5.25;1.02;;;9.40;99.90;;;;;;5004198;28;20029;-59
2023/12/10 00:18:29;;;;;;;3.13;0.85;;;9.40;99.90;;;;;;5004479;28;20034;-59
2023/12/10 00:20:55;;;;;;;4.35;1.10;;;9.40;99.90;;;;;;5004233;28;20035;-59
2023/12/10 00:23:21;;;;;;;2.40;0.52;;;9.30;99.90;;;;;;5005265;28;20030;-59
2023/12/10 00:25:46;;;;;;;6.10;0.90;;;9.40;99.90;;;;;;4987546;28;20056;-60
2023/12/10 00:28:13;;;;;;;4.68;0.90;;;9.30;99.90;;;;;;5004954;28;20033;-59
2023/12/10 00:30:41;;;;;;;2.33;0.93;;;9.40;99.90;;;;;;5003899;28;20075;-58
2023/12/10 00:33:08;;;;;;;2.58;1.10;;;9.30;99.90;;;;;;5004126;28;20105;-61
2023/12/10 00:35:34;;;;;;;2.80;1.00;;;9.30;99.90;;;;;;5004643;28;20023;-59
2023/12/10 00:37:59;;;;;;;8.27;1.67;;;9.30;99.90;;;;;;5003838;28;20034;-58
2023/12/10 00:40:25;;;;;;;2.22;0.80;;;9.30;99.90;;;;;;5004255;28;20086;-59
2023/12/10 00:42:51;;;;;;;3.95;1.10;;;9.30;99.90;;;;;;5004907;28;20081;-59
2023/12/10 00:45:16;;;;;;;1.73;0.80;;;9.30;99.90;;;;;;5003784;28;20025;-59
2023/12/10 00:47:42;;;;;;;3.65;0.90;;;9.30;99.90;;;;;;5003750;28;20386;-59
2023/12/10 00:50:08;;;;;;;3.60;0.90;;;9.30;99.90;;;;;;5003688;28;20026;-59
2023/12/10 00:52:34;;;;;;;5.00;1.00;;;9.30;99.90;;;;;;5004807;28;20030;-59
2023/12/10 00:54:59;;;;;;;3.40;0.98;;;9.30;99.90;;;;;;5003408;28;20494;-59
2023/12/10 00:57:25;;;;;;;5.70;1.05;;;9.20;99.90;;;;;;5004908;28;20034;-58
2023/12/10 00:59:50;;;;;;;2.58;1.08;;;9.20;99.90;;;;;;5003859;28;20030;-59
2023/12/10 01:02:16;;;;;;;3.38;1.13;;;9.30;99.90;;;;;;5003323;28;20587;-60
2023/12/10 01:04:42;;;;;;;4.25;0.70;;;9.20;99.90;;;;;;5004590;28;20032;-59
2023/12/10 01:07:08;;;;;;;2.63;0.85;;;9.20;99.90;;;;;;5003329;28;20026;-59
2023/12/10 01:09:36;;;;;;;4.05;0.77;;;9.20;99.90;;;;;;5004505;28;20042;-59
2023/12/10 01:12:03;;;;;;;2.60;1.05;;;9.20;99.90;;;;;;5004572;28;20082;-60
2023/12/10 01:14:29;;;;;;;2.38;0.80;;;9.10;99.90;;;;;;5003131;28;20046;-60
2023/12/10 01:16:55;;;;;;;5.72;1.00;;;9.10;99.90;;;;;;5004514;28;20033;-60
2023/12/10 01:19:20;;;;;;;4.95;1.00;;;9.10;99.90;;;;;;5003284;28;20054;-59
2023/12/10 01:21:49;;;;;;;6.13;1.20;;;9.10;99.90;;;;;;5003044;28;20026;-60
2023/12/10 01:24:18;;;;;;;2.85;0.80;;;9.10;99.90;;;;;;5003108;28;20046;-59
2023/12/10 01:26:44;;;;;;;5.40;1.00;;;9.10;99.90;;;;;;5004192;28;20042;-59
2023/12/10 01:29:10;;;;;;;2.25;0.90;;;9.10;99.90;;;;;;4986789;28;20129;-59
2023/12/10 01:31:35;;;;;;;3.50;0.77;;;9.00;99.90;;;;;;5003080;28;20035;-60
2023/12/10 01:34:02;;;;;;;3.17;0.70;;;9.10;99.90;;;;;;5003049;28;20079;-59
2023/12/10 01:36:27;;;;;;;5.55;1.15;;;9.00;99.90;;;;;;5004145;28;20033;-59
2023/12/10 01:38:53;;;;;;;3.10;0.75;;;9.00;99.90;;;;;;5002721;28;20030;-59
2023/12/10 01:41:19;;;;;;;3.75;0.90;;;9.00;99.90;;;;;;5002663;28;20099;-59
2023/12/10 01:43:45;;;;;;;7.10;1.45;;;9.00;99.90;;;;;;5004002;28;20069;-59
2023/12/10 01:46:11;;;;;;;2.50;0.88;;;9.00;99.90;;;;;;5002686;28;20038;-59
2023/12/10 01:48:38;;;;;;;2.88;0.82;;;9.00;99.90;;;;;;5002938;28;20500;-59
2023/12/10 01:51:04;;;;;;;5.65;1.00;;;9.00;99.90;;;;;;5002775;28;20033;-59
2023/12/10 01:53:29;;;;;;;4.15;1.00;;;9.00;99.90;;;;;;4986522;28;20470;-60
2023/12/10 01:55:55;;;;;;;2.67;0.73;;;9.10;99.90;;;;;;5002657;28;20445;-60
2023/12/10 01:58:20;;;;;;;2.72;1.13;;;9.10;99.90;;;;;;5002601;28;20040;-59
2023/12/10 02:00:46;;;;;;;4.35;1.13;;;9.00;99.90;;;;;;5002588;28;20030;-60
2023/12/10 02:03:12;;;;;;;3.05;1.10;;;9.10;99.90;;;;;;5002726;28;20038;-59
2023/12/10 02:05:37;;;;;;;3.70;1.25;;;9.00;99.90;;;;;;5003115;28;20028;-59
2023/12/10 02:08:03;;;;;;;2.35;0.88;;;9.00;99.90;;;;;;5002733;28;20086;-59
2023/12/10 02:10:29;;;;;;;3.95;0.90;;;9.00;99.90;;;;;;5003748;28;20381;-59
2023/12/10 02:12:55;;;;;;;3.60;1.30;;;9.00;99.90;;;;;;5003735;28;20038;-59
2023/12/10 02:15:21;;;;;;;3.88;1.10;;;9.00;99.90;;;;;;5065502;28;20031;-59
2023/12/10 02:17:47;;;;;;;3.03;1.02;;;9.00;99.90;;;;;;5106285;28;20028;-59
2023/12/10 02:20:13;;;;;;;3.30;0.98;;;9.00;99.90;;;;;;5104973;28;20110;-59
2023/12/10 02:22:55;;;;;;;4.82;1.20;;;9.00;99.90;;;;;;5106196;28;20020;-59
2023/12/10 02:25:31;;;;;;;2.63;0.82;;;9.00;99.90;;;;;;5090197;28;20063;-59
2023/12/10 02:27:57;;;;;;;4.65;1.52;;;9.00;99.90;;;;;;5106203;28;20100;-59
2023/12/10 02:30:22;;;;;;;4.65;1.40;;;9.00;99.90;;;;;;5088136;28;20047;-59
2023/12/10 02:32:49;;;;;;;5.03;1.17;;;9.00;99.90;;;;;;5088129;28;20098;-59
2023/12/10 02:35:14;;;;;;;6.40;1.33;;;9.00;99.90;;;;;;5104949;28;20020;-59
2023/12/10 02:37:40;;;;;;;3.80;1.35;;;9.00;99.90;;;;;;5106158;28;20028;-59
2023/12/10 02:40:06;;;;;;;3.67;1.25;;;9.00;99.90;;;;;;5106040;28;20107;-59
2023/12/10 02:42:32;;;;;;;4.97;1.17;;;9.00;99.90;;;;;;5104746;28;20052;-60
2023/12/10 02:44:57;;;;;;;4.88;1.40;;;9.00;99.90;;;;;;5104722;28;20044;-59
2023/12/10 02:47:23;;;;;;;6.45;1.38;;;9.00;99.90;;;;;;5106071;28;20040;-60
2023/12/10 02:49:48;;;;;;;7.38;1.92;;;9.00;99.90;;;;;;5106023;28;20032;-59
2023/12/10 02:52:14;;;;;;;4.63;1.40;;;8.90;99.90;;;;;;5106175;28;20475;-59
2023/12/10 02:54:40;;;;;;;7.95;2.17;;;8.90;99.90;;;;;;5105953;28;20029;-59
2023/12/10 02:57:06;;;;;;;7.47;1.60;;;8.90;99.90;;;;;;5105979;28;20031;-59
2023/12/10 02:59:31;;;;;;;6.15;1.67;;;8.90;99.90;;;;;;5106441;28;20024;-59
2023/12/10 03:01:57;;;;;;;8.18;1.73;;;8.90;99.90;;;;;;5109616;28;20036;-59
2023/12/10 03:04:22;;;;;;;5.05;1.55;;;8.90;99.90;;;;;;5108412;28;20024;-59
2023/12/10 03:06:48;;;;;;;7.97;2.10;;;8.90;99.90;;;;;;5108189;28;20464;-59
2023/12/10 03:09:13;;;;;;;6.65;1.58;;;8.80;99.90;;;;;;5108279;28;20177;-59
2023/12/10 03:11:39;;;;;;;8.30;1.75;;;8.80;99.90;;;;;;5108242;28;20020;-59
2023/12/10 03:14:05;;;;;;;9.95;2.58;;;8.80;99.90;;;;;;5109044;28;20032;-59
2023/12/10 03:16:30;;;;;;;6.00;1.92;;;8.90;99.90;;;;;;5091177;28;20032;-59
2023/12/10 03:18:56;;;;;;;7.60;1.95;;;8.80;99.90;;;;;;5109273;28;20028;-59
2023/12/10 03:21:21;;;;;;;5.38;2.08;;;8.80;99.90;;;;;;5108014;28;20032;-59
2023/12/10 03:23:47;;;;;;;10.43;2.53;;;8.90;99.90;;;;;;5109292;28;20028;-59
2023/12/10 03:26:13;;;;;;;7.35;1.95;;;8.80;99.90;;;;;;5108873;28;20062;-59
2023/12/10 03:28:38;;;;;;;5.45;1.90;;;8.80;99.90;;;;;;5107830;28;20051;-58
2023/12/10 03:31:04;;;;;;;7.80;2.22;;;8.80;99.90;;;;;;5109104;28;20028;-59
2023/12/10 03:33:31;;;;;;;5.85;1.85;;;8.80;99.90;;;;;;5108900;28;20028;-59
2023/12/10 03:35:57;;;;;;;8.13;2.03;;;8.80;99.90;;;;;;5108954;28;20361;-59
2023/12/10 03:38:23;;;;;;;9.38;2.40;;;8.80;99.90;;;;;;5108878;28;20046;-59
2023/12/10 03:40:48;;;;;;;6.95;2.28;;;8.80;99.90;;;;;;5107704;28;20030;-59
2023/12/10 03:43:14;;;;;;;8.20;2.38;;;8.80;99.90;;;;;;5110521;28;20112;-59
2023/12/10 03:45:39;;;;;;;7.07;1.88;;;8.80;99.90;;;;;;5108235;28;20024;-59
2023/12/10 03:48:05;;;;;;;6.32;2.30;;;8.80;99.90;;;;;;5090631;28;20051;-59
2023/12/10 03:50:31;;;;;;;8.00;2.15;;;8.80;99.90;;;;;;5108576;28;20024;-59
2023/12/10 03:52:56;;;;;;;11.25;2.03;;;8.80;99.90;;;;;;5108771;28;20035;-59
2023/12/10 03:55:22;;;;;;;8.07;2.53;;;8.80;99.90;;;;;;5107041;28;20514;-58
2023/12/10 03:57:48;;;;;;;8.40;2.03;;;8.80;99.90;;;;;;5090187;28;20055;-59
2023/12/10 04:00:14;;;;;;;10.82;1.95;;;8.80;99.90;;;;;;5106968;28;20035;-59
2023/12/10 04:02:40;;;;;;;7.93;2.38;;;8.80;99.90;;;;;;5107204;28;20024;-59
2023/12/10 04:05:11;;;;;;;8.48;2.00;;;8.80;99.90;;;;;;5107006;28;20064;-59
2023/12/10 04:07:37;;;;;;;10.38;2.53;;;8.80;99.90;;;;;;5107121;28;20095;-59
2023/12/10 04:10:03;;;;;;;9.90;2.75;;;8.80;99.90;;;;;;5089597;28;20032;-59
2023/12/10 04:12:30;;;;;;;8.80;2.63;;;8.80;99.90;;;;;;5107896;28;20024;-59
2023/12/10 04:14:56;;;;;;;12.57;2.97;;;8.70;99.90;;;;;;5073324;28;20025;-59
2023/12/10 04:17:21;;;;;;;9.35;2.50;;;8.70;99.90;;;;;;5090050;28;20073;-59
2023/12/10 04:19:47;;;;;;;12.10;2.88;;;8.70;99.90;;;;;;5108160;28;20032;-59
2023/12/10 04:22:13;;;;;;;11.55;2.63;;;8.70;99.90;;;;;;5090033;28;20020;-59
2023/12/10 04:24:39;;;;;;;12.32;2.90;;;8.70;99.90;;;;;;5106976;28;20479;-59
2023/12/10 04:27:04;;;;;;;12.43;2.83;;;8.70;99.90;;;;;;5089180;28;20089;-59
2023/12/10 04:29:30;;;;;;;12.55;3.22;;;8.70;99.90;;;;;;5108067;28;20032;-58
2023/12/10 04:31:55;;;;;;;10.38;2.63;;;8.60;99.90;;;;;;5107910;28;20020;-59
2023/12/10 04:34:21;;;;;;;9.32;2.10;;;8.60;99.90;;;;;;5089765;28;20020;-59
2023/12/10 04:36:47;;;;;;;8.02;2.45;;;8.60;99.90;;;;;;5107802;28;20032;-59
2023/12/10 04:39:13;;;;;;;7.10;2.28;;;8.70;99.90;;;;;;5106330;28;20043;-59
2023/12/10 04:41:39;;;;;;;9.10;2.67;;;8.60;99.90;;;;;;5106486;28;20031;-59
2023/12/10 04:44:04;;;;;;;8.98;2.15;;;8.60;99.90;;;;;;5107570;28;20031;-59
2023/12/10 04:46:30;;;;;;;8.80;2.40;;;8.60;99.90;;;;;;5106662;28;20028;-59
2023/12/10 04:48:56;;;;;;;11.38;2.47;;;8.60;99.90;;;;;;5108294;28;20081;-59
2023/12/10 04:51:21;;;;;;;8.68;2.13;;;8.60;99.90;;;;;;5107143;28;20028;-59
2023/12/10 04:53:47;;;;;;;12.55;3.35;;;8.60;99.90;;;;;;5106595;28;20035;-59
2023/12/10 04:56:12;;;;;;;10.30;2.17;;;8.60;99.90;;;;;;5107440;28;20034;-59
2023/12/10 04:58:38;;;;;;;9.80;2.58;;;8.60;99.90;;;;;;5107232;28;20032;-59
2023/12/10 05:01:04;;;;;;;6.18;2.38;;;8.60;99.90;;;;;;5106092;28;20185;-59
2023/12/10 05:03:30;;;;;;;8.48;2.25;;;8.60;99.90;;;;;;5107202;28;20024;-60
2023/12/10 05:05:55;;;;;;;8.90;2.35;;;8.60;99.90;;;;;;5105892;28;20087;-60
2023/12/10 05:08:21;;;;;;;9.35;2.17;;;8.60;99.90;;;;;;5105772;28;20181;-59
2023/12/10 05:10:47;;;;;;;7.30;2.17;;;8.60;99.90;;;;;;5107035;28;20025;-59
2023/12/10 05:13:12;;;;;;;10.82;2.80;;;8.60;99.90;;;;;;5088970;28;20055;-59
2023/12/10 05:15:38;;;;;;;10.68;2.95;;;8.60;99.90;;;;;;5105757;28;20028;-59
2023/12/10 05:18:04;;;;;;;9.23;2.15;;;8.60;99.90;;;;;;5107117;28;20186;-59
2023/12/10 05:20:30;;;;;;;6.13;2.20;;;8.60;99.90;;;;;;5106873;28;20578;-59
2023/12/10 05:22:57;;;;;;;11.15;2.53;;;8.60;99.90;;;;;;5105473;28;20107;-59
2023/12/10 05:25:23;;;;;;;10.15;2.53;;;8.60;99.90;;;;;;5088915;28;20025;-58
2023/12/10 05:27:49;;;;;;;7.85;2.63;;;8.60;99.90;;;;;;5106994;28;20054;-59
2023/12/10 05:30:14;;;;;;;9.95;2.67;;;8.60;99.90;;;;;;5106715;28;20177;-59
2023/12/10 05:32:40;;;;;;;6.85;1.98;;;8.60;99.90;;;;;;5105657;28;20024;-59
2023/12/10 05:35:05;;;;;;;7.72;2.33;;;8.60;99.90;;;;;;5088566;28;20028;-59
2023/12/10 05:37:31;;;;;;;7.82;1.85;;;8.60;99.90;;;;;;5105453;28;20043;-59
2023/12/10 05:39:57;;;;;;;6.40;2.17;;;8.60;99.90;;;;;;5106553;28;20484;-59
2023/12/10 05:42:23;;;;;;;7.40;2.70;;;8.60;99.90;;;;;;5106865;28;20044;-58
2023/12/10 05:44:49;;;;;;;9.50;2.67;;;8.60;99.90;;;;;;5106507;28;20028;-59
2023/12/10 05:47:14;;;;;;;8.13;2.42;;;8.60;99.90;;;;;;5106448;28;20024;-59
2023/12/10 05:49:40;;;;;;;9.70;2.10;;;8.60;99.90;;;;;;5105239;28;20032;-59
2023/12/10 05:52:05;;;;;;;6.25;2.15;;;8.50;99.90;;;;;;5105195;28;20422;-59
2023/12/10 05:54:31;;;;;;;7.15;2.17;;;8.60;99.90;;;;;;5088330;28;20024;-59
2023/12/10 05:56:57;;;;;;;10.38;2.33;;;8.60;99.90;;;;;;5106372;28;20020;-59
2023/12/10 05:59:22;;;;;;;12.25;2.85;;;8.50;99.90;;;;;;5105150;28;20059;-59
2023/12/10 06:01:48;;;;;;;7.25;1.88;;;8.50;99.90;;;;;;5088403;28;20050;-59
2023/12/10 06:04:13;;;;;;;10.35;2.55;;;8.50;99.90;;;;;;5106280;28;20506;-60
2023/12/10 06:06:39;;;;;;;6.95;2.03;;;8.50;99.90;;;;;;5105103;28;20024;-59
2023/12/10 06:09:05;;;;;;;8.57;2.40;;;8.50;99.90;;;;;;5106318;28;20040;-59
2023/12/10 06:11:31;;;;;;;8.18;2.08;;;8.50;99.90;;;;;;5088407;28;20030;-59
2023/12/10 06:13:56;;;;;;;7.28;2.20;;;8.50;99.90;;;;;;5106322;28;20054;-60
2023/12/10 06:16:22;;;;;;;6.70;1.85;;;8.50;99.90;;;;;;5087844;28;20017;-59
2023/12/10 06:18:47;;;;;;;8.93;2.35;;;8.50;99.90;;;;;;5106377;28;20494;-59
2023/12/10 06:21:13;;;;;;;7.05;2.22;;;8.50;99.90;;;;;;5104859;28;20020;-59
2023/12/10 06:23:39;;;;;;;7.47;2.05;;;8.50;99.90;;;;;;5106195;28;20032;-59
2023/12/10 06:26:05;;;;;;;7.50;2.10;;;8.50;99.90;;;;;;5087778;28;20369;-59
2023/12/10 06:28:31;;;;;;;6.05;2.17;;;8.50;99.90;;;;;;5106016;28;20036;-59
2023/12/10 06:30:58;;;;;;;5.93;1.77;;;8.50;99.90;;;;;;5106108;28;20028;-59
2023/12/10 06:33:23;;;;;;;8.68;2.10;;;8.40;99.90;;;;;;5106381;28;20028;-59
2023/12/10 06:35:49;;;;;;;6.03;1.63;;;8.40;99.90;;;;;;5110162;28;20027;-59
2023/12/10 06:38:14;;;;;;;8.65;2.33;;;8.40;99.90;;;;;;5110152;28;20036;-59
2023/12/10 06:40:40;;;;;;;8.27;2.40;;;8.40;99.90;;;;;;5108639;28;20120;-58
2023/12/10 06:43:07;;;;;;;6.47;1.90;;;8.40;99.90;;;;;;5108732;28;20038;-59
2023/12/10 06:45:32;;;;;;;5.68;1.52;;;8.40;99.90;;;;;;5108544;28;20383;-59
2023/12/10 06:47:58;;;;;;;6.78;1.95;;;8.40;99.90;;;;;;5109932;28;20031;-59
2023/12/10 06:50:24;;;;;;;7.20;1.83;;;8.40;99.90;;;;;;5109521;28;20144;-59
2023/12/10 06:52:49;;;;;;;8.23;2.33;;;8.40;99.90;;;;;;5108686;28;20036;-59
2023/12/10 06:55:15;;;;;;;6.68;1.90;;;8.40;99.90;;;;;;5108583;28;20017;-59
2023/12/10 06:57:41;;;;;;;9.80;2.00;;;8.40;99.90;;;;;;5109834;28;20029;-59
2023/12/10 07:00:07;;;;;;;7.70;2.35;;;8.40;99.90;;;;;;5108494;28;20051;-59
2023/12/10 07:02:33;;;;;;;5.22;1.45;;;8.40;99.90;;;;;;5108384;28;20028;-59
2023/12/10 07:04:58;;;;;;;7.43;1.80;;;8.40;99.90;;;;;;5109507;28;20032;-60
2023/12/10 07:07:24;;;;;;;8.02;2.08;;;8.40;99.90;;;;;;5108136;28;20024;-59
2023/12/10 07:09:49;;;;;;;7.25;2.00;;;8.40;99.90;;;;;;5108417;28;20050;-59
2023/12/10 07:12:15;;;;;;;7.65;1.90;;;8.40;99.90;;;;;;5109532;28;20028;-59
2023/12/10 07:14:41;;;;;;;6.25;2.00;;;8.40;99.90;;;;;;5108951;28;20388;-58
2023/12/10 07:17:06;;;;;;;5.30;1.88;;;8.40;99.90;;;;;;5108937;28;20051;-59
2023/12/10 07:19:35;;;;;;;7.72;2.30;;;8.40;99.90;;;;;;5109577;28;20032;-58
2023/12/10 07:22:01;;;;;;;7.60;2.28;;;8.40;99.90;;;;;;5090757;28;20035;-59
2023/12/10 07:24:27;;;;;;;6.72;1.98;;;8.40;99.90;;;;;;5109144;28;20040;-59
2023/12/10 07:26:52;;;;;;;8.15;1.92;;;8.40;99.90;;;;;;5090793;28;20024;-59
2023/12/10 07:29:18;;;;;;;5.97;1.70;;;8.40;99.90;;;;;;5108939;28;20101;-60
2023/12/10 07:31:44;;;;;;;7.82;1.95;;;8.40;99.90;;;;;;5109134;28;20051;-59
2023/12/10 07:34:09;;;;;;;5.13;1.85;;;8.40;99.90;;;;;;5107901;28;20024;-59
2023/12/10 07:36:35;;;;;;;6.40;1.88;;;8.40;99.90;;;;;;5109007;28;20548;-59
2023/12/10 07:39:00;;;;;;;5.47;2.00;;;8.40;99.90;;;;;;5108994;28;20030;-58
2023/12/10 07:41:26;;;;;;;6.13;1.40;;;8.40;99.90;;;;;;5107859;28;20035;-59
2023/12/10 07:43:52;;;;;;;7.43;1.73;;;8.40;99.90;;;;;;5090761;28;20032;-59
2023/12/10 07:46:17;;;;;;;6.43;2.03;;;8.40;99.90;;;;;;5106349;28;20030;-59
2023/12/10 07:48:43;;;;;;;5.45;1.70;;;8.40;99.90;;;;;;5107640;28;20036;-58
2023/12/10 07:51:08;;;;;;;7.55;1.77;;;8.40;99.90;;;;;;5108600;28;20031;-59
2023/12/10 07:53:34;;;;;;;9.00;1.98;;;8.40;99.90;;;;;;5107539;28;20050;-59
2023/12/10 07:56:00;;;;;;;7.05;2.10;;;8.40;99.90;;;;;;5124227;28;20032;-59
2023/12/10 07:58:25;;;;;;;7.03;1.77;;;8.40;99.90;;;;;;5107547;28;20024;-59
2023/12/10 08:00:51;;;;;;;7.05;1.90;;;8.40;99.90;;;;;;5108452;28;20024;-59
2023/12/10 08:03:17;;;;;;;8.40;2.10;;;8.50;99.90;;;;;;5106028;28;20024;-58
2023/12/10 08:05:42;;;;;;;7.00;1.88;;;8.40;99.90;;;;;;5003689;28;20039;-59
2023/12/10 08:08:08;;;;;;;6.82;1.92;;;8.40;99.90;;;;;;5002239;28;20330;-59
2023/12/10 08:10:33;;;;;;;9.25;2.28;;;8.50;99.90;;;;;;5002618;28;20471;-59
2023/12/10 08:12:59;;;;;;;5.18;1.58;;;8.40;99.90;;;;;;5005341;28;20061;-59
2023/12/10 08:15:25;;;;;;;5.28;1.48;;;8.50;99.90;;;;;;4986750;28;20663;-58
2023/12/10 08:17:52;;;;;;;5.47;1.88;;;8.50;99.90;;;;;;5003991;28;20023;-59
2023/12/10 08:20:17;;;;;;;6.63;2.30;;;8.50;99.90;;;;;;5004092;28;20022;-57
2023/12/10 08:22:43;;;;;;;8.73;1.95;;;8.50;99.90;;;;;;5004207;28;20034;-59
2023/12/10 08:25:08;;;;;;;5.82;1.77;;;8.50;99.90;;;;;;5003949;28;20420;-60
2023/12/10 08:27:34;;;;;;;5.10;1.60;;;8.50;99.90;;;;;;5004952;28;20034;-59
2023/12/10 08:30:00;;;;;;;8.18;2.03;;;8.50;99.90;;;;;;5003859;28;20034;-59
2023/12/10 08:32:27;;;;;;;9.05;2.22;;;8.50;99.90;;;;;;5004021;28;20160;-59
2023/12/10 08:34:53;;;;;;;7.05;1.98;;;8.50;99.90;;;;;;5003849;28;20023;-59
2023/12/10 08:37:18;;;;;;;8.93;1.92;;;8.50;99.90;;;;;;5004442;28;20470;-59
2023/12/10 08:39:44;;;;;;;6.13;1.80;;;8.50;99.90;;;;;;5003766;28;20033;-58
2023/12/10 08:42:10;;;;;;;6.25;1.98;;;8.60;99.90;;;;;;5003512;28;20058;-59
2023/12/10 08:44:35;;;;;;;7.30;1.95;;;8.60;99.90;;;;;;5003804;28;20034;-59
2023/12/10 08:47:01;;;;;;;7.97;2.10;;;8.60;99.90;;;;;;5003821;28;20027;-60
2023/12/10 08:49:27;;;;;;;6.25;1.58;;;8.60;99.90;;;;;;5003475;28;20031;-60
2023/12/10 08:51:52;;;;;;;6.68;2.10;;;8.60;99.90;;;;;;5003500;28;20452;-59
2023/12/10 08:54:18;;;;;;;8.27;2.35;;;8.60;99.90;;;;;;5002931;28;20027;-59
2023/12/10 08:56:43;;;;;;;6.20;1.70;;;8.60;99.90;;;;;;5002623;28;20034;-60
2023/12/10 08:59:09;;;;;;;7.20;1.92;;;8.70;99.90;;;;;;5004416;28;20030;-59
2023/12/10 09:01:35;;;;;;;7.50;1.85;;;8.70;99.90;;;;;;5004462;28;20030;-50
2023/12/10 09:04:01;;;;;;;5.78;1.80;;;8.60;99.90;;;;;;5002947;28;20486;-51
2023/12/10 09:06:27;;;;;;;5.72;1.80;;;8.70;99.90;;;;;;5002784;28;20439;-51
2023/12/10 09:08:52;;;;;;;8.52;2.10;;;8.70;99.90;;;;;;5002967;28;20485;-51
2023/12/10 09:11:18;;;;;;;7.30;2.03;;;8.70;99.90;;;;;;5002835;28;20371;-51
2023/12/10 09:13:43;;;;;;;11.98;2.50;;;8.70;99.90;;;;;;5003289;28;20054;-51
2023/12/10 09:16:09;;;;;;;20.02;3.25;;;8.80;99.90;;;;;;5002706;28;20033;-51
2023/12/10 09:18:35;;;;;;;10.02;2.30;;;8.70;99.90;;;;;;5003123;28;20122;-51
2023/12/10 09:21:01;;;;;;;46.60;4.75;;;8.80;99.90;;;;;;5004016;28;20041;-51
2023/12/10 09:23:27;;;;;;;32.75;4.32;;;8.80;99.90;;;;;;5003023;28;20050;-51
2023/12/10 09:25:53;;;;;;;29.95;4.68;;;8.90;99.90;;;;;;5002751;28;20061;-51
2023/12/10 09:28:18;;;;;;;25.83;4.63;;;8.90;99.90;;;;;;5004041;28;20466;-51
2023/12/10 09:30:44;;;;;;;85.20;8.57;;;8.90;99.90;;;;;;5002071;28;20026;-51
2023/12/10 09:33:10;;;;;;;81.50;8.13;;;8.90;99.90;;;;;;5002134;28;20474;-51
2023/12/10 09:35:36;;;;;;;56.45;6.78;;;8.90;99.90;;;;;;5002720;28;20038;-51
2023/12/10 09:38:03;;;;;;;71.40;9.13;;;9.00;99.90;;;;;;5002709;28;20038;-51
2023/12/10 09:40:31;;;;;;;125.05;12.00;;;9.00;99.90;;;;;;5003717;28;20086;-51
2023/12/10 09:42:57;;;;;;;115.72;10.10;;;9.00;99.90;;;;;;5002446;28;20456;-51
2023/12/10 09:45:22;;;;;;;102.28;9.70;;;9.10;99.90;;;;;;5002400;28;20022;-51
2023/12/10 09:47:48;;;;;;;123.75;11.38;;;9.10;99.90;;;;;;5003672;28;20116;-51
2023/12/10 09:50:14;;;;;;;137.45;13.05;;;9.10;99.90;;;;;;5002366;28;20023;-51
2023/12/10 09:52:39;;;;;;;126.85;12.82;;;9.20;99.90;;;;;;5002313;28;20088;-51
2023/12/10 09:55:05;;;;;;;167.80;15.23;;;9.20;99.90;;;;;;5003573;28;20038;-51
2023/12/10 09:57:31;;;;;;;190.63;18.58;;;9.20;99.90;;;;;;4985999;28;20034;-51
2023/12/10 09:59:56;;;;;;;171.30;17.13;;;9.30;99.90;;;;;;5003417;28;20547;-51
2023/12/10 10:02:33;;;;;;;225.10;18.17;;;9.30;99.90;;;;;;4985475;28;20478;-51
2023/12/10 10:04:58;;;;;;;189.55;14.38;;;9.30;99.90;;;;;;5003017;28;20043;-51
2023/12/10 10:07:24;;;;;;;166.43;14.98;;;9.40;99.90;;;;;;5002093;28;20056;-51
2023/12/10 10:09:51;;;;;;;163.98;18.98;;;9.40;99.90;;;;;;5005481;28;20038;-51
2023/12/10 10:12:16;;;;;;;150.35;17.60;;;9.40;99.90;;;;;;5005021;28;20023;-51
2023/12/10 10:14:58;;;;;;;205.18;17.33;;;9.50;99.90;;;;;;5006277;28;20474;-50
2023/12/10 10:17:27;;;;;;;221.57;20.33;;;9.40;99.90;;;;;;5005205;28;20081;-50
2023/12/10 10:19:54;;;;;;;280.90;25.98;;;9.50;99.90;;;;;;5005184;28;20036;-50
2023/12/10 10:22:21;;;;;;;268.20;24.38;;;9.50;99.90;;;;;;5006559;28;20470;-51
2023/12/10 10:24:47;;;;;;;259.38;23.73;;;9.50;99.90;;;;;;5006532;28;20039;-51
2023/12/10 10:27:12;;;;;;;236.60;25.75;;;9.60;99.90;;;;;;5032719;28;20051;-49
2023/12/10 10:29:38;;;;;;;214.07;22.60;;;9.60;99.90;;;;;;5023388;28;20477;-51
2023/12/10 10:32:04;;;;;;;259.50;22.58;;;9.60;99.90;;;;;;5006395;28;20014;-50
2023/12/10 10:34:30;;;;;;;232.25;22.63;;;9.70;99.90;;;;;;5006278;28;20049;-51
2023/12/10 10:36:55;;;;;;;234.05;22.38;;;9.70;99.90;;;;;;5006058;28;20098;-51
2023/12/10 10:39:21;;;;;;;259.73;25.85;;;9.70;99.90;;;;;;5022292;28;20154;-51
2023/12/10 10:41:49;;;;;;;267.52;25.70;;;9.80;99.90;;;;;;5020806;28;20027;-51
2023/12/10 10:44:14;;;;;;;272.63;25.25;;;9.80;99.90;;;;;;5088633;28;20534;-51
2023/12/10 10:46:40;;;;;;;225.30;25.27;;;9.80;99.90;;;;;;5106150;28;20020;-51
2023/12/10 10:49:06;;;;;;;248.43;24.95;;;9.90;99.90;;;;;;5106281;28;20032;-51
2023/12/10 10:51:31;;;;;;;263.58;29.17;;;9.90;99.90;;;;;;5108619;28;20024;-51
2023/12/10 10:53:58;;;;;;;302.70;28.65;;;9.90;99.90;;;;;;5090567;28;20035;-51
2023/12/10 10:56:24;;;;;;;233.20;26.15;;;10.00;99.90;;;;;;4978368;28;20029;-50
2023/12/10 10:58:50;;;;;;;284.17;28.20;;;10.00;99.90;;;;;;4988003;28;20031;-51
2023/12/10 11:01:38;;;;;;;285.27;30.48;;;10.10;99.90;;;;;;5005197;28;20114;-51
2023/12/10 11:04:04;;;;;;;316.20;27.23;;;10.10;99.90;;;;;;5004185;28;20062;-51
2023/12/10 11:06:30;;;;;;;266.30;27.63;;;10.10;99.90;;;;;;5016988;28;20075;-51
2023/12/10 11:08:59;;;;;;;256.45;26.45;;;10.10;99.90;;;;;;5024737;28;20496;-51
2023/12/10 11:11:26;;;;;;;275.58;28.83;;;10.10;99.90;;;;;;5007462;28;20049;-51
2023/12/10 11:13:51;;;;;;;273.95;30.30;;;10.20;99.90;;;;;;5021649;28;20060;-51
2023/12/10 11:16:17;;;;;;;290.80;29.15;;;10.20;99.90;;;;;;4984684;28;20031;-51
2023/12/10 11:18:53;;;;;;;263.60;28.08;;;10.20;99.90;;;;;;4968817;28;20427;-51
2023/12/10 11:21:18;;;;;;;300.23;34.53;;;10.30;99.90;;;;;;4984680;28;20069;-51
2023/12/10 11:23:44;;;;;;;254.43;27.17;;;10.30;99.90;;;;;;4984842;28;20031;-51
2023/12/10 11:26:10;;;;;;;257.27;27.38;;;10.30;99.90;;;;;;5017026;28;20039;-51
2023/12/10 11:28:35;;;;;;;254.40;28.15;;;10.30;99.90;;;;;;4985966;28;20478;-51
2023/12/10 11:31:01;;;;;;;243.52;27.05;;;10.30;99.90;;;;;;5017162;28;20458;-51
2023/12/10 11:33:27;;;;;;;248.57;27.35;;;10.30;99.90;;;;;;5031566;28;20038;-51
2023/12/10 11:35:56;;;;;;;291.27;30.90;;;10.30;99.90;;;;;;5003993;28;20026;-51
2023/12/10 11:38:22;;;;;;;269.45;28.40;;;10.40;99.90;;;;;;5005013;28;20035;-51
2023/12/10 11:40:48;;;;;;;289.40;29.70;;;10.40;99.90;;;;;;4986682;28;20079;-51
2023/12/10 11:43:13;;;;;;;314.23;31.52;;;10.40;99.90;;;;;;4987117;28;20061;-51
2023/12/10 11:45:39;;;;;;;234.80;27.10;;;10.40;99.90;;;;;;5003810;28;20018;-51
2023/12/10 11:48:05;;;;;;;299.20;30.23;;;10.50;99.90;;;;;;5005056;28;20038;-51
2023/12/10 11:50:31;;;;;;;248.40;26.30;;;10.50;99.90;;;;;;5001872;28;20027;-51
2023/12/10 11:52:57;;;;;;;256.27;29.73;;;10.50;99.90;;;;;;5005292;28;20078;-51
2023/12/10 11:55:22;;;;;;;294.15;27.73;;;10.50;99.90;;;;;;5004254;28;20030;-51
2023/12/10 11:57:48;;;;;;;357.30;34.05;;;10.60;99.90;;;;;;5003736;28;20053;-51
2023/12/10 12:00:14;;;;;;;309.25;30.05;;;10.60;99.90;;;;;;5004885;28;20065;-51
2023/12/10 12:02:44;;;;;;;320.13;30.85;;;10.60;99.90;;;;;;4999332;28;20034;-51
2023/12/10 12:05:14;;;;;;;261.35;28.25;;;10.60;99.90;;;;;;4980069;28;20094;-51
2023/12/10 12:07:41;;;;;;;299.50;32.78;;;10.60;99.90;;;;;;5002221;28;20031;-51
2023/12/10 12:10:07;;;;;;;277.75;30.13;;;10.70;99.90;;;;;;5002538;28;20034;-51
2023/12/10 12:12:37;;;;;;;232.75;26.67;;;10.70;99.90;;;;;;4990557;28;20047;-51
2023/12/10 12:15:02;;;;;;;267.45;29.98;;;10.70;99.90;;;;;;4999514;28;20054;-51
2023/12/10 12:17:28;;;;;;;302.75;30.45;;;10.70;99.90;;;;;;4982220;28;20023;-51
2023/12/10 12:19:54;;;;;;;221.35;25.02;;;10.70;99.90;;;;;;5003298;28;20039;-51
2023/12/10 12:22:20;;;;;;;233.23;28.15;;;10.80;99.90;;;;;;5004330;28;20079;-51
2023/12/10 12:24:45;;;;;;;265.08;26.95;;;10.80;99.90;;;;;;5002671;28;20084;-51
2023/12/10 12:27:11;;;;;;;230.63;24.58;;;10.80;99.90;;;;;;5002607;28;20091;-51
2023/12/10 12:29:37;;;;;;;228.05;24.48;;;10.80;99.90;;;;;;5001774;28;20098;-51
2023/12/10 12:32:03;;;;;;;240.32;23.48;;;10.90;99.90;;;;;;5003179;28;20026;-51
2023/12/10 12:34:29;;;;;;;215.73;25.08;;;10.90;99.90;;;;;;4997709;28;20390;-51
2023/12/10 12:36:54;;;;;;;256.63;27.27;;;10.90;99.90;;;;;;4985906;28;20034;-51
2023/12/10 12:39:20;;;;;;;231.50;25.77;;;10.90;99.90;;;;;;4986012;28;20035;-51
2023/12/10 12:41:47;;;;;;;225.20;27.17;;;10.90;99.90;;;;;;4983383;28;20091;-51